Flugplatz Heubach

Für EDTH sind keine METAR/TAF Berichte vorhanden.
Es werden die Flugwettermeldungen vom Flugplatz Adolf Würth in 36 km Entfernung angezeigt.

Bericht für EDTY

vom 25.10. um 17:20 UTC

variable Windrichtung mit 2 kt

Sichtweite 10 km oder mehr

gute Sicht, keine Wolken < 5000 ft, keine CB, keine Wettererscheinungen (CAVOK)

Temperatur 10.0°C

Taupunkt 6.0°C

Luftfeuchtigkeit 76%

Luftdruck 1020 hPa

EDTY 251720Z VRB02KT CAVOK 10/06 Q1020

Prognose für EDTY

vom 25.10. um 17:00 UTC

Zwischen 18:00 UTC und 03:00 UTC

variable Windrichtung mit 2 kt

Sichtweite 10 km oder mehr

keine signifikanten Wettererscheinungen

keine Wolken


Zwischen 23:00 UTC und 03:00 UTC zeitweise mit einer Wahrscheinlichkeit von 30%

Sichtweite 1200 m

Nebelschwaden

TAF EDTY 251700Z 2518/2603 VRB02KT CAVOK PROB30 TEMPO 2523/2603 1200 BCFG
Impressum